sensor_id;sensor_type;location;lat;lon;timestamp;temperature;humidity
29281;DHT22;25048;49.590;11.026;2023-09-12T00:01:41;15.60;99.90
29281;DHT22;25048;49.590;11.026;2023-09-12T00:04:09;15.60;99.90
29281;DHT22;25048;49.590;11.026;2023-09-12T00:06:38;15.60;99.90
29281;DHT22;25048;49.590;11.026;2023-09-12T00:09:05;15.60;99.90
29281;DHT22;25048;49.590;11.026;2023-09-12T00:11:33;15.60;99.90
29281;DHT22;25048;49.590;11.026;2023-09-12T00:14:00;15.50;99.90
29281;DHT22;25048;49.590;11.026;2023-09-12T00:16:28;15.50;99.90
29281;DHT22;25048;49.590;11.026;2023-09-12T00:18:55;15.50;99.90
29281;DHT22;25048;49.590;11.026;2023-09-12T00:21:23;15.50;99.90
29281;DHT22;25048;49.590;11.026;2023-09-12T00:23:50;15.50;99.90
29281;DHT22;25048;49.590;11.026;2023-09-12T00:26:18;15.50;99.90
29281;DHT22;25048;49.590;11.026;2023-09-12T00:28:45;15.40;99.90
29281;DHT22;25048;49.590;11.026;2023-09-12T00:31:13;15.40;99.90
29281;DHT22;25048;49.590;11.026;2023-09-12T00:33:40;15.40;99.90
29281;DHT22;25048;49.590;11.026;2023-09-12T00:36:08;15.40;99.90
29281;DHT22;25048;49.590;11.026;2023-09-12T00:38:35;15.40;99.90
29281;DHT22;25048;49.590;11.026;2023-09-12T00:41:03;15.40;99.90
29281;DHT22;25048;49.590;11.026;2023-09-12T00:43:30;15.30;99.90
29281;DHT22;25048;49.590;11.026;2023-09-12T00:45:58;15.30;99.90
29281;DHT22;25048;49.590;11.026;2023-09-12T00:48:26;15.20;99.90
29281;DHT22;25048;49.590;11.026;2023-09-12T00:50:54;15.20;99.90
29281;DHT22;25048;49.590;11.026;2023-09-12T00:53:22;15.10;99.90
29281;DHT22;25048;49.590;11.026;2023-09-12T00:55:52;15.10;99.90
29281;DHT22;25048;49.590;11.026;2023-09-12T00:58:23;15.00;99.90
29281;DHT22;25048;49.590;11.026;2023-09-12T01:00:51;15.00;99.90
29281;DHT22;25048;49.590;11.026;2023-09-12T01:03:19;14.90;99.90
29281;DHT22;25048;49.590;11.026;2023-09-12T01:05:47;14.90;99.90
29281;DHT22;25048;49.590;11.026;2023-09-12T01:08:16;14.80;99.90
29281;DHT22;25048;49.590;11.026;2023-09-12T01:10:44;14.80;99.90
29281;DHT22;25048;49.590;11.026;2023-09-12T01:13:14;14.80;99.90
29281;DHT22;25048;49.590;11.026;2023-09-12T01:15:42;14.80;99.90
29281;DHT22;25048;49.590;11.026;2023-09-12T01:18:10;14.80;99.90
29281;DHT22;25048;49.590;11.026;2023-09-12T01:20:40;14.80;99.90
29281;DHT22;25048;49.590;11.026;2023-09-12T01:26:04;14.70;99.90
29281;DHT22;25048;49.590;11.026;2023-09-12T01:28:31;14.70;99.90
29281;DHT22;25048;49.590;11.026;2023-09-12T01:31:04;14.70;99.90
29281;DHT22;25048;49.590;11.026;2023-09-12T01:33:32;14.60;99.90
29281;DHT22;25048;49.590;11.026;2023-09-12T01:35:59;14.60;99.90
29281;DHT22;25048;49.590;11.026;2023-09-12T01:38:27;14.60;99.90
29281;DHT22;25048;49.590;11.026;2023-09-12T01:40:56;14.50;99.90
29281;DHT22;25048;49.590;11.026;2023-09-12T01:43:25;14.50;99.90
29281;DHT22;25048;49.590;11.026;2023-09-12T01:45:55;14.50;99.90
29281;DHT22;25048;49.590;11.026;2023-09-12T01:48:25;14.50;99.90
29281;DHT22;25048;49.590;11.026;2023-09-12T01:50:54;14.50;99.90
29281;DHT22;25048;49.590;11.026;2023-09-12T01:53:21;14.40;99.90
29281;DHT22;25048;49.590;11.026;2023-09-12T01:55:50;14.40;99.90
29281;DHT22;25048;49.590;11.026;2023-09-12T01:58:18;14.30;99.90
29281;DHT22;25048;49.590;11.026;2023-09-12T02:00:45;14.30;99.90
29281;DHT22;25048;49.590;11.026;2023-09-12T02:03:13;14.30;99.90
29281;DHT22;25048;49.590;11.026;2023-09-12T02:05:41;14.30;99.90
29281;DHT22;25048;49.590;11.026;2023-09-12T02:08:08;14.20;99.90
29281;DHT22;25048;49.590;11.026;2023-09-12T02:10:36;14.20;99.90
29281;DHT22;25048;49.590;11.026;2023-09-12T02:13:03;14.20;99.90
29281;DHT22;25048;49.590;11.026;2023-09-12T02:15:31;14.20;99.90
29281;DHT22;25048;49.590;11.026;2023-09-12T02:17:58;14.10;99.90
29281;DHT22;25048;49.590;11.026;2023-09-12T02:20:26;14.10;99.90
29281;DHT22;25048;49.590;11.026;2023-09-12T02:22:53;14.10;99.90
29281;DHT22;25048;49.590;11.026;2023-09-12T02:25:21;14.10;99.90
29281;DHT22;25048;49.590;11.026;2023-09-12T02:27:48;14.10;99.90
29281;DHT22;25048;49.590;11.026;2023-09-12T02:30:16;14.00;99.90
29281;DHT22;25048;49.590;11.026;2023-09-12T02:32:43;14.00;99.90
29281;DHT22;25048;49.590;11.026;2023-09-12T02:35:11;14.00;99.90
29281;DHT22;25048;49.590;11.026;2023-09-12T02:37:38;14.00;99.90
29281;DHT22;25048;49.590;11.026;2023-09-12T02:40:06;14.00;99.90
29281;DHT22;25048;49.590;11.026;2023-09-12T02:42:36;14.00;99.90
29281;DHT22;25048;49.590;11.026;2023-09-12T02:45:04;13.90;99.90
29281;DHT22;25048;49.590;11.026;2023-09-12T02:47:32;13.90;99.90
29281;DHT22;25048;49.590;11.026;2023-09-12T02:49:59;13.90;99.90
29281;DHT22;25048;49.590;11.026;2023-09-12T02:52:27;13.80;99.90
29281;DHT22;25048;49.590;11.026;2023-09-12T02:54:54;13.80;99.90
29281;DHT22;25048;49.590;11.026;2023-09-12T02:57:22;13.80;99.90
29281;DHT22;25048;49.590;11.026;2023-09-12T02:59:49;13.80;99.90
29281;DHT22;25048;49.590;11.026;2023-09-12T03:02:17;13.70;99.90
29281;DHT22;25048;49.590;11.026;2023-09-12T03:04:44;13.70;99.90
29281;DHT22;25048;49.590;11.026;2023-09-12T03:07:12;13.70;99.90
29281;DHT22;25048;49.590;11.026;2023-09-12T03:09:39;13.60;99.90
29281;DHT22;25048;49.590;11.026;2023-09-12T03:12:07;13.60;99.90
29281;DHT22;25048;49.590;11.026;2023-09-12T03:14:34;13.60;99.90
29281;DHT22;25048;49.590;11.026;2023-09-12T03:17:02;13.60;99.90
29281;DHT22;25048;49.590;11.026;2023-09-12T03:19:30;13.60;99.90
29281;DHT22;25048;49.590;11.026;2023-09-12T03:21:58;13.60;99.90
29281;DHT22;25048;49.590;11.026;2023-09-12T03:24:25;13.60;99.90
29281;DHT22;25048;49.590;11.026;2023-09-12T03:26:54;13.50;99.90
29281;DHT22;25048;49.590;11.026;2023-09-12T03:29:22;13.50;99.90
29281;DHT22;25048;49.590;11.026;2023-09-12T03:31:50;13.50;99.90
29281;DHT22;25048;49.590;11.026;2023-09-12T03:34:17;13.50;99.90
29281;DHT22;25048;49.590;11.026;2023-09-12T03:36:45;13.50;99.90
29281;DHT22;25048;49.590;11.026;2023-09-12T03:39:12;13.50;99.90
29281;DHT22;25048;49.590;11.026;2023-09-12T03:41:40;13.40;99.90
29281;DHT22;25048;49.590;11.026;2023-09-12T03:44:07;13.40;99.90
29281;DHT22;25048;49.590;11.026;2023-09-12T03:46:35;13.40;99.90
29281;DHT22;25048;49.590;11.026;2023-09-12T03:49:02;13.40;99.90
29281;DHT22;25048;49.590;11.026;2023-09-12T03:51:30;13.40;99.90
29281;DHT22;25048;49.590;11.026;2023-09-12T03:53:57;13.30;99.90
29281;DHT22;25048;49.590;11.026;2023-09-12T03:56:25;13.30;99.90
29281;DHT22;25048;49.590;11.026;2023-09-12T03:58:52;13.30;99.90
29281;DHT22;25048;49.590;11.026;2023-09-12T04:01:22;13.30;99.90
29281;DHT22;25048;49.590;11.026;2023-09-12T04:03:49;13.30;99.90
29281;DHT22;25048;49.590;11.026;2023-09-12T04:06:17;13.20;99.90
29281;DHT22;25048;49.590;11.026;2023-09-12T04:08:44;13.20;99.90
29281;DHT22;25048;49.590;11.026;2023-09-12T04:11:12;13.10;99.90
29281;DHT22;25048;49.590;11.026;2023-09-12T04:13:39;13.10;99.90
29281;DHT22;25048;49.590;11.026;2023-09-12T04:16:07;13.10;99.90
29281;DHT22;25048;49.590;11.026;2023-09-12T04:18:34;13.10;99.90
29281;DHT22;25048;49.590;11.026;2023-09-12T04:21:02;13.10;99.90
29281;DHT22;25048;49.590;11.026;2023-09-12T04:23:29;13.20;99.90
29281;DHT22;25048;49.590;11.026;2023-09-12T04:25:57;13.20;99.90
29281;DHT22;25048;49.590;11.026;2023-09-12T04:28:26;13.10;99.90
29281;DHT22;25048;49.590;11.026;2023-09-12T04:31:01;13.20;99.90
29281;DHT22;25048;49.590;11.026;2023-09-12T04:33:29;13.10;99.90
29281;DHT22;25048;49.590;11.026;2023-09-12T04:36:01;13.20;99.90
29281;DHT22;25048;49.590;11.026;2023-09-12T04:38:29;13.10;99.90
29281;DHT22;25048;49.590;11.026;2023-09-12T04:40:57;13.20;99.90
29281;DHT22;25048;49.590;11.026;2023-09-12T04:43:26;13.10;99.90
29281;DHT22;25048;49.590;11.026;2023-09-12T04:45:53;13.10;99.90
29281;DHT22;25048;49.590;11.026;2023-09-12T04:48:21;13.10;99.90
29281;DHT22;25048;49.590;11.026;2023-09-12T04:50:48;13.00;99.90
29281;DHT22;25048;49.590;11.026;2023-09-12T04:53:16;13.00;99.90
29281;DHT22;25048;49.590;11.026;2023-09-12T04:55:43;13.00;99.90
29281;DHT22;25048;49.590;11.026;2023-09-12T04:58:11;13.00;99.90
29281;DHT22;25048;49.590;11.026;2023-09-12T05:00:39;13.00;99.90
29281;DHT22;25048;49.590;11.026;2023-09-12T05:03:07;13.00;99.90
29281;DHT22;25048;49.590;11.026;2023-09-12T05:05:35;13.00;99.90
29281;DHT22;25048;49.590;11.026;2023-09-12T05:08:03;13.00;99.90
29281;DHT22;25048;49.590;11.026;2023-09-12T05:10:31;13.00;99.90
29281;DHT22;25048;49.590;11.026;2023-09-12T05:12:59;13.00;99.90
29281;DHT22;25048;49.590;11.026;2023-09-12T05:15:26;13.10;99.90
29281;DHT22;25048;49.590;11.026;2023-09-12T05:17:54;13.10;99.90
29281;DHT22;25048;49.590;11.026;2023-09-12T05:20:21;13.20;99.90
29281;DHT22;25048;49.590;11.026;2023-09-12T05:22:49;13.20;99.90
29281;DHT22;25048;49.590;11.026;2023-09-12T05:25:16;13.30;99.90
29281;DHT22;25048;49.590;11.026;2023-09-12T05:27:44;13.30;99.90
29281;DHT22;25048;49.590;11.026;2023-09-12T05:30:12;13.40;99.90
29281;DHT22;25048;49.590;11.026;2023-09-12T05:32:41;13.50;99.90
29281;DHT22;25048;49.590;11.026;2023-09-12T05:35:08;13.60;99.90
29281;DHT22;25048;49.590;11.026;2023-09-12T05:37:36;13.70;99.90
29281;DHT22;25048;49.590;11.026;2023-09-12T05:40:04;13.70;99.90
29281;DHT22;25048;49.590;11.026;2023-09-12T05:42:34;13.80;99.90
29281;DHT22;25048;49.590;11.026;2023-09-12T05:45:01;13.90;99.90
29281;DHT22;25048;49.590;11.026;2023-09-12T05:47:29;13.90;99.90
29281;DHT22;25048;49.590;11.026;2023-09-12T05:49:56;14.00;99.90
29281;DHT22;25048;49.590;11.026;2023-09-12T05:52:26;14.10;99.90
29281;DHT22;25048;49.590;11.026;2023-09-12T05:54:53;14.10;99.90
29281;DHT22;25048;49.590;11.026;2023-09-12T05:57:21;14.20;99.90
29281;DHT22;25048;49.590;11.026;2023-09-12T05:59:48;14.30;99.90
29281;DHT22;25048;49.590;11.026;2023-09-12T06:02:16;14.30;99.90
29281;DHT22;25048;49.590;11.026;2023-09-12T06:04:44;14.40;99.90
29281;DHT22;25048;49.590;11.026;2023-09-12T06:07:11;14.50;99.90
29281;DHT22;25048;49.590;11.026;2023-09-12T06:09:39;14.60;99.90
29281;DHT22;25048;49.590;11.026;2023-09-12T06:12:07;14.70;99.90
29281;DHT22;25048;49.590;11.026;2023-09-12T06:14:34;14.80;99.90
29281;DHT22;25048;49.590;11.026;2023-09-12T06:17:02;14.90;99.90
29281;DHT22;25048;49.590;11.026;2023-09-12T06:19:29;15.00;99.90
29281;DHT22;25048;49.590;11.026;2023-09-12T06:21:57;15.10;99.90
29281;DHT22;25048;49.590;11.026;2023-09-12T06:24:25;15.20;99.90
29281;DHT22;25048;49.590;11.026;2023-09-12T06:26:54;15.30;99.90
29281;DHT22;25048;49.590;11.026;2023-09-12T06:29:22;15.40;99.90
29281;DHT22;25048;49.590;11.026;2023-09-12T06:31:49;15.50;99.90
29281;DHT22;25048;49.590;11.026;2023-09-12T06:34:17;15.60;99.90
29281;DHT22;25048;49.590;11.026;2023-09-12T06:36:44;15.70;99.90
29281;DHT22;25048;49.590;11.026;2023-09-12T06:39:12;15.80;99.90
29281;DHT22;25048;49.590;11.026;2023-09-12T06:41:39;15.90;99.90
29281;DHT22;25048;49.590;11.026;2023-09-12T06:44:07;16.00;99.90
29281;DHT22;25048;49.590;11.026;2023-09-12T06:46:34;16.10;99.90
29281;DHT22;25048;49.590;11.026;2023-09-12T06:49:04;16.30;99.90
29281;DHT22;25048;49.590;11.026;2023-09-12T06:51:31;16.40;99.90
29281;DHT22;25048;49.590;11.026;2023-09-12T06:53:59;16.50;99.90
29281;DHT22;25048;49.590;11.026;2023-09-12T06:56:26;16.70;99.90
29281;DHT22;25048;49.590;11.026;2023-09-12T06:58:54;16.80;99.90
29281;DHT22;25048;49.590;11.026;2023-09-12T07:01:22;16.90;99.90
29281;DHT22;25048;49.590;11.026;2023-09-12T07:03:49;17.10;99.90
29281;DHT22;25048;49.590;11.026;2023-09-12T07:06:19;17.20;99.90
29281;DHT22;25048;49.590;11.026;2023-09-12T07:08:46;17.30;99.90
29281;DHT22;25048;49.590;11.026;2023-09-12T07:11:14;17.50;99.90
29281;DHT22;25048;49.590;11.026;2023-09-12T07:13:41;17.60;99.90
29281;DHT22;25048;49.590;11.026;2023-09-12T07:16:09;17.70;99.90
29281;DHT22;25048;49.590;11.026;2023-09-12T07:18:37;17.90;99.90
29281;DHT22;25048;49.590;11.026;2023-09-12T07:21:05;18.00;99.90
29281;DHT22;25048;49.590;11.026;2023-09-12T07:23:33;18.10;99.90
29281;DHT22;25048;49.590;11.026;2023-09-12T07:26:01;18.20;99.90
29281;DHT22;25048;49.590;11.026;2023-09-12T07:28:30;18.40;99.90
29281;DHT22;25048;49.590;11.026;2023-09-12T07:30:58;18.50;99.90
29281;DHT22;25048;49.590;11.026;2023-09-12T07:33:29;18.60;99.90
29281;DHT22;25048;49.590;11.026;2023-09-12T07:35:56;18.80;99.90
29281;DHT22;25048;49.590;11.026;2023-09-12T07:38:24;19.00;99.90
29281;DHT22;25048;49.590;11.026;2023-09-12T07:40:51;19.10;99.90
29281;DHT22;25048;49.590;11.026;2023-09-12T07:43:19;19.20;99.90
29281;DHT22;25048;49.590;11.026;2023-09-12T07:45:46;19.40;99.90
29281;DHT22;25048;49.590;11.026;2023-09-12T07:48:15;19.60;99.90
29281;DHT22;25048;49.590;11.026;2023-09-12T07:50:43;19.80;99.90
29281;DHT22;25048;49.590;11.026;2023-09-12T07:53:11;20.00;99.90
29281;DHT22;25048;49.590;11.026;2023-09-12T07:55:39;20.10;99.90
29281;DHT22;25048;49.590;11.026;2023-09-12T07:58:08;20.20;99.90
29281;DHT22;25048;49.590;11.026;2023-09-12T08:00:36;20.40;99.90
29281;DHT22;25048;49.590;11.026;2023-09-12T08:03:04;20.50;99.90
29281;DHT22;25048;49.590;11.026;2023-09-12T08:05:59;20.60;99.90
29281;DHT22;25048;49.590;11.026;2023-09-12T08:08:23;20.70;99.90
29281;DHT22;25048;49.590;11.026;2023-09-12T08:10:51;20.90;99.90
29281;DHT22;25048;49.590;11.026;2023-09-12T08:13:18;21.00;99.90
29281;DHT22;25048;49.590;11.026;2023-09-12T08:15:46;21.10;99.90
29281;DHT22;25048;49.590;11.026;2023-09-12T08:18:13;21.20;99.90
29281;DHT22;25048;49.590;11.026;2023-09-12T08:20:41;21.30;99.90
29281;DHT22;25048;49.590;11.026;2023-09-12T08:23:10;21.50;99.90
29281;DHT22;25048;49.590;11.026;2023-09-12T08:25:37;21.60;99.90
29281;DHT22;25048;49.590;11.026;2023-09-12T08:28:05;21.70;99.90
29281;DHT22;25048;49.590;11.026;2023-09-12T08:30:32;21.90;99.90
29281;DHT22;25048;49.590;11.026;2023-09-12T08:33:00;22.10;99.90
29281;DHT22;25048;49.590;11.026;2023-09-12T08:35:29;22.30;99.90
29281;DHT22;25048;49.590;11.026;2023-09-12T08:37:56;22.40;99.90
29281;DHT22;25048;49.590;11.026;2023-09-12T08:40:24;22.50;99.90
29281;DHT22;25048;49.590;11.026;2023-09-12T08:42:52;22.70;99.90
29281;DHT22;25048;49.590;11.026;2023-09-12T08:45:20;22.90;99.90
29281;DHT22;25048;49.590;11.026;2023-09-12T08:47:53;23.10;99.90
29281;DHT22;25048;49.590;11.026;2023-09-12T08:50:21;23.30;99.90
29281;DHT22;25048;49.590;11.026;2023-09-12T08:52:50;23.50;99.90
29281;DHT22;25048;49.590;11.026;2023-09-12T08:55:18;23.70;99.90
29281;DHT22;25048;49.590;11.026;2023-09-12T08:57:47;23.90;99.90
29281;DHT22;25048;49.590;11.026;2023-09-12T09:00:16;24.10;99.90
29281;DHT22;25048;49.590;11.026;2023-09-12T09:02:44;24.20;99.90
29281;DHT22;25048;49.590;11.026;2023-09-12T09:05:12;24.40;99.90
29281;DHT22;25048;49.590;11.026;2023-09-12T09:07:42;24.50;99.90
29281;DHT22;25048;49.590;11.026;2023-09-12T09:10:17;24.60;99.90
29281;DHT22;25048;49.590;11.026;2023-09-12T09:12:46;24.80;99.90
29281;DHT22;25048;49.590;11.026;2023-09-12T09:15:29;25.00;99.90
29281;DHT22;25048;49.590;11.026;2023-09-12T09:17:57;25.20;99.90
29281;DHT22;25048;49.590;11.026;2023-09-12T09:20:32;25.30;99.90
29281;DHT22;25048;49.590;11.026;2023-09-12T09:23:08;25.50;99.90
29281;DHT22;25048;49.590;11.026;2023-09-12T09:25:39;25.70;99.90
29281;DHT22;25048;49.590;11.026;2023-09-12T09:28:18;25.90;99.90
29281;DHT22;25048;49.590;11.026;2023-09-12T09:30:48;26.00;99.90
29281;DHT22;25048;49.590;11.026;2023-09-12T09:33:17;26.00;99.90
29281;DHT22;25048;49.590;11.026;2023-09-12T09:35:48;26.20;99.90
29281;DHT22;25048;49.590;11.026;2023-09-12T09:38:19;26.30;99.90
29281;DHT22;25048;49.590;11.026;2023-09-12T09:40:47;26.50;99.90
29281;DHT22;25048;49.590;11.026;2023-09-12T09:43:23;26.70;99.90
29281;DHT22;25048;49.590;11.026;2023-09-12T09:45:51;27.00;99.90
29281;DHT22;25048;49.590;11.026;2023-09-12T09:48:21;27.10;99.90
29281;DHT22;25048;49.590;11.026;2023-09-12T09:50:49;27.20;99.90
29281;DHT22;25048;49.590;11.026;2023-09-12T09:53:27;27.30;99.90
29281;DHT22;25048;49.590;11.026;2023-09-12T09:56:12;27.40;99.90
29281;DHT22;25048;49.590;11.026;2023-09-12T09:58:54;27.60;99.90
29281;DHT22;25048;49.590;11.026;2023-09-12T10:01:29;27.60;99.90
29281;DHT22;25048;49.590;11.026;2023-09-12T10:03:59;27.80;99.90
29281;DHT22;25048;49.590;11.026;2023-09-12T10:06:28;27.90;99.90
29281;DHT22;25048;49.590;11.026;2023-09-12T10:08:58;27.80;99.90
29281;DHT22;25048;49.590;11.026;2023-09-12T10:11:28;27.80;99.90
29281;DHT22;25048;49.590;11.026;2023-09-12T10:13:59;27.90;99.90
29281;DHT22;25048;49.590;11.026;2023-09-12T10:16:29;28.00;99.90
29281;DHT22;25048;49.590;11.026;2023-09-12T10:19:08;28.30;99.90
29281;DHT22;25048;49.590;11.026;2023-09-12T10:21:34;28.40;99.90
29281;DHT22;25048;49.590;11.026;2023-09-12T10:24:03;28.60;99.90
29281;DHT22;25048;49.590;11.026;2023-09-12T10:26:33;28.60;99.90
29281;DHT22;25048;49.590;11.026;2023-09-12T10:29:02;28.70;99.90
29281;DHT22;25048;49.590;11.026;2023-09-12T10:31:32;28.80;99.90
29281;DHT22;25048;49.590;11.026;2023-09-12T10:34:02;28.90;99.90
29281;DHT22;25048;49.590;11.026;2023-09-12T10:36:31;29.10;99.90
29281;DHT22;25048;49.590;11.026;2023-09-12T10:38:59;29.20;99.90
29281;DHT22;25048;49.590;11.026;2023-09-12T10:41:27;29.30;99.90
29281;DHT22;25048;49.590;11.026;2023-09-12T10:43:56;29.40;99.90
29281;DHT22;25048;49.590;11.026;2023-09-12T10:46:25;29.50;99.90
29281;DHT22;25048;49.590;11.026;2023-09-12T10:48:53;29.50;99.90
29281;DHT22;25048;49.590;11.026;2023-09-12T10:51:21;29.50;99.90
29281;DHT22;25048;49.590;11.026;2023-09-12T10:53:50;29.60;99.90
29281;DHT22;25048;49.590;11.026;2023-09-12T10:56:20;29.70;99.90
29281;DHT22;25048;49.590;11.026;2023-09-12T11:01:35;29.80;99.90
29281;DHT22;25048;49.590;11.026;2023-09-12T11:06:50;29.90;99.90
29281;DHT22;25048;49.590;11.026;2023-09-12T11:09:23;30.10;99.90
29281;DHT22;25048;49.590;11.026;2023-09-12T11:11:56;30.10;99.90
29281;DHT22;25048;49.590;11.026;2023-09-12T11:14:24;30.30;99.90
29281;DHT22;25048;49.590;11.026;2023-09-12T11:19:50;30.40;99.90
29281;DHT22;25048;49.590;11.026;2023-09-12T11:22:23;30.40;99.90
29281;DHT22;25048;49.590;11.026;2023-09-12T11:24:52;30.50;99.90
29281;DHT22;25048;49.590;11.026;2023-09-12T11:27:22;30.50;99.90
29281;DHT22;25048;49.590;11.026;2023-09-12T11:29:50;30.50;99.90
29281;DHT22;25048;49.590;11.026;2023-09-12T11:32:30;30.50;99.90
29281;DHT22;25048;49.590;11.026;2023-09-12T11:34:57;30.50;99.90
29281;DHT22;25048;49.590;11.026;2023-09-12T11:37:26;30.50;99.90
29281;DHT22;25048;49.590;11.026;2023-09-12T11:39:56;30.70;99.90
29281;DHT22;25048;49.590;11.026;2023-09-12T11:42:27;30.80;99.90
29281;DHT22;25048;49.590;11.026;2023-09-12T11:44:55;31.00;99.90
29281;DHT22;25048;49.590;11.026;2023-09-12T11:47:24;31.20;99.90
29281;DHT22;25048;49.590;11.026;2023-09-12T11:49:53;31.30;99.90
29281;DHT22;25048;49.590;11.026;2023-09-12T11:52:20;31.40;99.90
29281;DHT22;25048;49.590;11.026;2023-09-12T11:54:48;31.50;98.70
29281;DHT22;25048;49.590;11.026;2023-09-12T11:57:16;31.40;98.30
29281;DHT22;25048;49.590;11.026;2023-09-12T11:59:45;31.50;99.20
29281;DHT22;25048;49.590;11.026;2023-09-12T12:02:15;31.50;97.90
29281;DHT22;25048;49.590;11.026;2023-09-12T12:04:42;31.60;99.70
29281;DHT22;25048;49.590;11.026;2023-09-12T12:07:11;31.70;99.20
29281;DHT22;25048;49.590;11.026;2023-09-12T12:09:39;31.80;98.30
29281;DHT22;25048;49.590;11.026;2023-09-12T12:12:13;31.80;97.60
29281;DHT22;25048;49.590;11.026;2023-09-12T12:14:41;31.80;96.20
29281;DHT22;25048;49.590;11.026;2023-09-12T12:17:12;31.80;96.00
29281;DHT22;25048;49.590;11.026;2023-09-12T12:19:44;31.80;96.10
29281;DHT22;25048;49.590;11.026;2023-09-12T12:22:09;31.80;96.20
29281;DHT22;25048;49.590;11.026;2023-09-12T12:24:45;31.80;96.00
29281;DHT22;25048;49.590;11.026;2023-09-12T12:27:06;31.90;96.20
29281;DHT22;25048;49.590;11.026;2023-09-12T12:29:36;31.90;96.20
29281;DHT22;25048;49.590;11.026;2023-09-12T12:32:05;32.00;96.30
29281;DHT22;25048;49.590;11.026;2023-09-12T12:34:35;32.10;96.40
29281;DHT22;25048;49.590;11.026;2023-09-12T12:37:03;32.30;95.40
29281;DHT22;25048;49.590;11.026;2023-09-12T12:39:32;32.40;96.40
29281;DHT22;25048;49.590;11.026;2023-09-12T12:42:00;32.60;95.80
29281;DHT22;25048;49.590;11.026;2023-09-12T12:44:34;32.70;96.10
29281;DHT22;25048;49.590;11.026;2023-09-12T12:47:06;32.80;95.70
29281;DHT22;25048;49.590;11.026;2023-09-12T12:49:37;33.00;95.60
29281;DHT22;25048;49.590;11.026;2023-09-12T12:52:06;33.10;95.00
29281;DHT22;25048;49.590;11.026;2023-09-12T12:54:35;33.20;93.80
29281;DHT22;25048;49.590;11.026;2023-09-12T12:57:02;33.30;95.40
29281;DHT22;25048;49.590;11.026;2023-09-12T12:59:30;33.30;94.30
29281;DHT22;25048;49.590;11.026;2023-09-12T13:01:59;33.30;94.30
29281;DHT22;25048;49.590;11.026;2023-09-12T13:04:27;33.40;93.70
29281;DHT22;25048;49.590;11.026;2023-09-12T13:06:54;33.50;94.40
29281;DHT22;25048;49.590;11.026;2023-09-12T13:09:22;33.70;95.60
29281;DHT22;25048;49.590;11.026;2023-09-12T13:11:49;33.70;93.70
29281;DHT22;25048;49.590;11.026;2023-09-12T13:14:17;33.70;93.20
29281;DHT22;25048;49.590;11.026;2023-09-12T13:16:45;33.70;92.80
29281;DHT22;25048;49.590;11.026;2023-09-12T13:19:13;33.60;92.10
29281;DHT22;25048;49.590;11.026;2023-09-12T13:21:41;33.60;93.10
29281;DHT22;25048;49.590;11.026;2023-09-12T13:24:09;33.70;93.30
29281;DHT22;25048;49.590;11.026;2023-09-12T13:26:37;33.70;92.40
29281;DHT22;25048;49.590;11.026;2023-09-12T13:29:04;33.80;93.60
29281;DHT22;25048;49.590;11.026;2023-09-12T13:31:32;33.90;93.50
29281;DHT22;25048;49.590;11.026;2023-09-12T13:33:59;34.00;93.30
29281;DHT22;25048;49.590;11.026;2023-09-12T13:36:27;34.20;92.00
29281;DHT22;25048;49.590;11.026;2023-09-12T13:38:54;34.30;92.20
29281;DHT22;25048;49.590;11.026;2023-09-12T13:41:22;34.50;93.80
29281;DHT22;25048;49.590;11.026;2023-09-12T13:43:51;34.70;92.00
29281;DHT22;25048;49.590;11.026;2023-09-12T13:46:18;34.70;91.60
29281;DHT22;25048;49.590;11.026;2023-09-12T13:48:46;34.80;91.40
29281;DHT22;25048;49.590;11.026;2023-09-12T13:51:13;34.90;92.10
29281;DHT22;25048;49.590;11.026;2023-09-12T13:53:41;35.00;91.90
29281;DHT22;25048;49.590;11.026;2023-09-12T13:56:08;35.10;92.10
29281;DHT22;25048;49.590;11.026;2023-09-12T13:58:36;35.30;90.60
29281;DHT22;25048;49.590;11.026;2023-09-12T14:01:03;35.50;89.70
29281;DHT22;25048;49.590;11.026;2023-09-12T14:03:31;35.70;87.40
29281;DHT22;25048;49.590;11.026;2023-09-12T14:05:58;36.00;86.80
29281;DHT22;25048;49.590;11.026;2023-09-12T14:08:26;36.20;90.90
29281;DHT22;25048;49.590;11.026;2023-09-12T14:10:54;36.40;85.70
29281;DHT22;25048;49.590;11.026;2023-09-12T14:13:21;36.60;87.30
29281;DHT22;25048;49.590;11.026;2023-09-12T14:15:49;36.70;85.00
29281;DHT22;25048;49.590;11.026;2023-09-12T14:18:17;36.60;82.90
29281;DHT22;25048;49.590;11.026;2023-09-12T14:20:45;36.60;86.60
29281;DHT22;25048;49.590;11.026;2023-09-12T14:23:13;36.50;81.80
29281;DHT22;25048;49.590;11.026;2023-09-12T14:25:40;36.30;86.90
29281;DHT22;25048;49.590;11.026;2023-09-12T14:28:08;36.30;86.70
29281;DHT22;25048;49.590;11.026;2023-09-12T14:30:35;36.30;89.60
29281;DHT22;25048;49.590;11.026;2023-09-12T14:33:04;36.40;86.60
29281;DHT22;25048;49.590;11.026;2023-09-12T14:35:32;36.30;85.10
29281;DHT22;25048;49.590;11.026;2023-09-12T14:37:59;36.30;86.30
29281;DHT22;25048;49.590;11.026;2023-09-12T14:40:27;36.10;82.30
29281;DHT22;25048;49.590;11.026;2023-09-12T14:42:55;36.10;85.40
29281;DHT22;25048;49.590;11.026;2023-09-12T14:45:22;36.10;87.70
29281;DHT22;25048;49.590;11.026;2023-09-12T14:47:51;36.00;85.20
29281;DHT22;25048;49.590;11.026;2023-09-12T14:50:21;35.90;83.80
29281;DHT22;25048;49.590;11.026;2023-09-12T14:52:50;35.90;86.70
29281;DHT22;25048;49.590;11.026;2023-09-12T14:55:18;35.70;83.70
29281;DHT22;25048;49.590;11.026;2023-09-12T14:57:45;35.70;85.00
29281;DHT22;25048;49.590;11.026;2023-09-12T15:00:13;35.60;84.90
29281;DHT22;25048;49.590;11.026;2023-09-12T15:02:40;35.60;85.20
29281;DHT22;25048;49.590;11.026;2023-09-12T15:05:08;35.50;87.00
29281;DHT22;25048;49.590;11.026;2023-09-12T15:07:36;35.40;86.90
29281;DHT22;25048;49.590;11.026;2023-09-12T15:10:04;35.20;87.50
29281;DHT22;25048;49.590;11.026;2023-09-12T15:12:32;35.10;87.50
29281;DHT22;25048;49.590;11.026;2023-09-12T15:15:00;34.90;86.10
29281;DHT22;25048;49.590;11.026;2023-09-12T15:17:27;34.80;87.30
29281;DHT22;25048;49.590;11.026;2023-09-12T15:19:55;34.70;85.80
29281;DHT22;25048;49.590;11.026;2023-09-12T15:22:22;34.70;86.40
29281;DHT22;25048;49.590;11.026;2023-09-12T15:24:50;34.60;86.60
29281;DHT22;25048;49.590;11.026;2023-09-12T15:27:17;34.60;85.00
29281;DHT22;25048;49.590;11.026;2023-09-12T15:29:44;34.60;84.60
29281;DHT22;25048;49.590;11.026;2023-09-12T15:32:12;34.70;85.70
29281;DHT22;25048;49.590;11.026;2023-09-12T15:34:39;34.60;86.90